Pagrindinis puslapis
METAR-TAF:

METAR-TAF

Oro uostai :

Lapenranta, Suomija

platuma: 61-02-45N, ilguma: 028-08-55E, Aukštis: 106 m

Dabartinis oras

Ataskaita buvo paskelbta 52 minutes, ne 12:50 UTC
Vėjas 5 kt iš Šiaurės Rytų, svyruoja nuo Šiaurės Vakarų ir Rytų
Temperatūra 13°C
Drėgmė 51%
Slėgis 1024 hPa
Matomumas 10 km arba daugiau
Su prošvaistėmis ne aukštis 4400 ft

METAR: EFLP 011250Z 04005KT 310V080 9999 BKN044 13/03 Q1024

Laikas: 16:42 (13:42 UTC)

Prognozė

Ataskaita buvo paskelbta 2 valandos ir 7 minutes, ne 11:35 UTC
Prognozė galioja nuo 01 metu 12 UTC su 01 metu 15 UTC
Vėjas 8 kt iš Šiaurės Rytų
Matomumas 10 km arba daugiau
Su prošvaistėmis ne aukštis 4500 ft

TAF: EFLP 011135Z 0112/0115 04008KT 9999 BKN045

Orai ataskaitas ir orų prognozės (METAR, TAF).

turimą stotys yra geltonos ir raudonos taškus žemėlapyje.

Perkelti pele per norėdami pamatyti stoties vardą.

Tada spustelėkite, norėdami matyti oro stebėjimo ir prognozės.

Norėdami pakeisti žemėlapį: spustelėkite ant žalios mygtukų su juodo kryžiaus žemyn,; žalią mygtuką su brūkšneliu, jei norite nutolinti; arba žalių rodyklių gretimoms žemėlapius.


METAR-TAF: